Time;durP1;ratioP1;P1;durP2;ratioP2;P2;SDS_P1;SDS_P2;PMS_P1;PMS_P2;Temp;Humidity;BMP_temperature;BMP_pressure;BME280_temperature;BME280_humidity;BME280_pressure;Samples;Min_cycle;Max_cycle;Signal;HPM_P1;HPM_P2
2023/05/14 00:00:41;;;;;;;;;;;;;;;12.69;84.96;98308.78;7380438;19;19919;-73
2023/05/14 00:03:08;;;;;;;;;;;;;;;12.79;85.17;98311.25;7381018;19;19918;-73
2023/05/14 00:05:35;;;;;;;;;;;;;;;12.83;85.11;98305.44;7375891;19;19927;-73
2023/05/14 00:08:01;;;;;;;;;;;;;;;12.86;84.87;98298.97;7377078;19;19919;-73
2023/05/14 00:10:28;;;;;;;;;;;;;;;12.76;84.53;98298.31;7376914;19;19923;-74
2023/05/14 00:12:55;;;;;;;;;;;;;;;12.64;84.72;98293.41;7375599;19;19915;-73
2023/05/14 00:15:21;;;;;;;;;;;;;;;12.60;84.91;98296.56;7378190;19;20463;-73
2023/05/14 00:17:48;;;;;;;;;;;;;;;12.52;85.37;98287.59;7377828;19;20341;-73
2023/05/14 00:20:15;;;;;;;;;;;;;;;12.56;85.05;98282.81;7374527;19;19922;-73
2023/05/14 00:22:41;;;;;;;;;;;;;;;12.54;85.13;98276.84;7376603;19;19948;-73
2023/05/14 00:25:08;;;;;;;;;;;;;;;12.52;85.08;98284.97;7371686;19;19935;-74
2023/05/14 00:27:36;;;;;;;;;;;;;;;12.50;85.22;98280.81;7375963;19;19918;-73
2023/05/14 00:30:03;;;;;;;;;;;;;;;12.45;85.50;98272.53;7379637;19;19922;-73
2023/05/14 00:32:30;;;;;;;;;;;;;;;12.35;85.28;98278.06;7379711;19;20309;-73
2023/05/14 00:34:57;;;;;;;;;;;;;;;12.33;85.14;98273.91;7373474;19;19922;-73
2023/05/14 00:37:23;;;;;;;;;;;;;;;12.24;85.41;98273.06;7374320;19;19919;-73
2023/05/14 00:39:50;;;;;;;;;;;;;;;12.17;85.38;98272.13;7374150;19;19926;-73
2023/05/14 00:42:17;;;;;;;;;;;;;;;12.13;85.85;98281.41;7375737;19;21233;-73
2023/05/14 00:44:43;;;;;;;;;;;;;;;12.01;86.06;98278.28;7371047;19;19937;-73
2023/05/14 00:47:10;;;;;;;;;;;;;;;11.89;86.04;98274.28;7368814;19;22393;-73
2023/05/14 00:49:39;;;;;;;;;;;;;;;12.02;86.23;98269.31;7378322;19;19932;-73
2023/05/14 00:52:06;;;;;;;;;;;;;;;12.01;86.12;98267.66;7374163;19;20250;-75
2023/05/14 00:54:33;;;;;;;;;;;;;;;12.00;85.98;98271.28;7375219;19;19990;-73
2023/05/14 00:57:00;;;;;;;;;;;;;;;12.01;86.13;98262.38;7370902;19;19954;-73
2023/05/14 00:59:26;;;;;;;;;;;;;;;12.04;86.10;98267.31;7377690;19;19922;-74
2023/05/14 01:01:53;;;;;;;;;;;;;;;12.08;85.78;98263.31;7371823;19;20352;-73
2023/05/14 01:04:20;;;;;;;;;;;;;;;12.02;85.89;98258.72;7376386;19;19982;-73
2023/05/14 01:06:51;;;;;;;;;;;;;;;11.99;85.72;98261.69;7376077;19;19933;-73
2023/05/14 01:09:21;;;;;;;;;;;;;;;11.97;85.68;98256.56;7375833;19;19939;-73
2023/05/14 01:11:53;;;;;;;;;;;;;;;11.96;85.63;98264.69;7372649;19;19926;-73
2023/05/14 01:14:26;;;;;;;;;;;;;;;11.94;85.54;98250.75;7377897;19;19961;-73
2023/05/14 01:16:54;;;;;;;;;;;;;;;11.85;86.01;98261.34;7371677;19;20312;-73
2023/05/14 01:19:33;;;;;;;;;;;;;;;11.89;85.89;98259.22;7373681;19;19919;-74
2023/05/14 01:22:00;;;;;;;;;;;;;;;11.87;85.61;98253.25;7373207;19;19918;-73
2023/05/14 01:24:27;;;;;;;;;;;;;;;11.91;85.99;98251.09;7372311;19;19919;-73
2023/05/14 01:26:54;;;;;;;;;;;;;;;11.82;85.78;98244.94;7370044;19;19970;-73
2023/05/14 01:29:21;;;;;;;;;;;;;;;11.79;85.83;98247.91;7373202;19;20497;-73
2023/05/14 01:31:49;;;;;;;;;;;;;;;11.73;85.63;98246.75;7372156;19;19948;-73
2023/05/14 01:34:17;;;;;;;;;;;;;;;11.76;85.60;98249.06;7374062;19;19936;-74
2023/05/14 01:36:44;;;;;;;;;;;;;;;11.65;86.08;98246.75;7370616;19;19922;-73
2023/05/14 01:39:11;;;;;;;;;;;;;;;11.72;85.81;98249.59;7363930;19;19923;-74
2023/05/14 01:41:41;;;;;;;;;;;;;;;11.69;85.70;98248.09;7375625;19;19941;-74
2023/05/14 01:44:07;;;;;;;;;;;;;;;11.67;85.91;98242.13;7373470;19;20281;-74
2023/05/14 01:46:34;;;;;;;;;;;;;;;11.69;85.76;98245.47;7377205;19;20369;-73
2023/05/14 01:49:01;;;;;;;;;;;;;;;11.67;86.03;98249.25;7367842;19;20340;-73
2023/05/14 01:51:27;;;;;;;;;;;;;;;11.69;85.78;98247.25;7370951;19;19915;-74
2023/05/14 01:53:54;;;;;;;;;;;;;;;11.63;85.76;98249.56;7372593;19;19911;-74
2023/05/14 01:56:22;;;;;;;;;;;;;;;11.58;85.47;98251.06;7374669;19;19923;-74
2023/05/14 01:58:49;;;;;;;;;;;;;;;11.50;85.78;98253.72;7368989;19;19938;-74
2023/05/14 02:01:16;;;;;;;;;;;;;;;11.51;85.90;98260.69;7372060;19;19923;-74
2023/05/14 02:03:43;;;;;;;;;;;;;;;11.54;85.62;98245.28;7376008;19;20270;-73
2023/05/14 02:06:09;;;;;;;;;;;;;;;11.43;86.24;98249.06;7369274;19;19923;-73
2023/05/14 02:08:36;;;;;;;;;;;;;;;11.37;86.59;98248.88;7371694;19;20328;-73
2023/05/14 02:11:03;;;;;;;;;;;;;;;11.38;86.66;98247.91;7368732;19;19922;-73
2023/05/14 02:13:30;;;;;;;;;;;;;;;11.29;86.92;98251.53;7376443;19;20278;-73
2023/05/14 02:15:57;;;;;;;;;;;;;;;11.35;86.87;98251.72;7372736;19;20342;-73
2023/05/14 02:18:23;;;;;;;;;;;;;;;11.31;86.58;98245.09;7371406;19;19926;-73
2023/05/14 02:20:50;;;;;;;;;;;;;;;11.36;86.72;98256.00;7375538;19;19935;-73
2023/05/14 02:23:17;;;;;;;;;;;;;;;11.36;86.81;98247.25;7372527;19;19914;-73
2023/05/14 02:25:46;;;;;;;;;;;;;;;11.37;86.91;98249.75;7373497;19;19919;-73
2023/05/14 02:28:13;;;;;;;;;;;;;;;11.31;86.97;98253.03;7372184;19;20404;-72
2023/05/14 02:30:39;;;;;;;;;;;;;;;11.29;86.92;98251.53;7374514;19;19944;-73
2023/05/14 02:33:06;;;;;;;;;;;;;;;11.13;86.97;98247.03;7370257;19;19974;-73
2023/05/14 02:35:33;;;;;;;;;;;;;;;11.05;86.66;98247.03;7364383;19;19914;-73
2023/05/14 02:38:00;;;;;;;;;;;;;;;11.19;86.62;98257.00;7370025;19;19915;-73
2023/05/14 02:40:26;;;;;;;;;;;;;;;11.21;86.39;98253.16;7374946;19;19927;-73
2023/05/14 02:42:53;;;;;;;;;;;;;;;11.16;86.43;98252.84;7372954;19;19944;-73
2023/05/14 02:45:20;;;;;;;;;;;;;;;11.21;86.50;98250.53;7369048;19;20270;-73
2023/05/14 02:47:47;;;;;;;;;;;;;;;11.24;86.39;98254.66;7373317;19;20038;-73
2023/05/14 02:50:14;;;;;;;;;;;;;;;10.66;87.82;98256.31;7377596;19;19922;-73
2023/05/14 02:52:41;;;;;;;;;;;;;;;10.59;89.00;98249.19;7378293;19;19919;-73
2023/05/14 02:55:08;;;;;;;;;;;;;;;10.47;89.30;98246.81;7369015;19;19923;-73
2023/05/14 02:57:34;;;;;;;;;;;;;;;10.52;89.74;98255.09;7373574;19;20340;-73
2023/05/14 03:00:01;;;;;;;;;;;;;;;10.45;89.96;98259.38;7375741;19;19911;-73
2023/05/14 03:02:28;;;;;;;;;;;;;;;10.42;90.21;98259.66;7375816;19;19925;-74
2023/05/14 03:04:55;;;;;;;;;;;;;;;10.36;90.16;98255.03;7373976;19;20446;-73
2023/05/14 03:07:22;;;;;;;;;;;;;;;10.39;90.03;98257.34;7373358;19;19940;-73
2023/05/14 03:09:48;;;;;;;;;;;;;;;10.18;90.38;98260.34;7367601;19;20290;-73
2023/05/14 03:12:15;;;;;;;;;;;;;;;10.21;90.50;98267.13;7371517;19;19944;-73
2023/05/14 03:14:43;;;;;;;;;;;;;;;10.35;90.51;98263.94;7374216;19;19926;-73
2023/05/14 03:17:09;;;;;;;;;;;;;;;10.31;90.33;98267.88;7367159;19;19969;-73
2023/05/14 03:19:36;;;;;;;;;;;;;;;10.44;90.38;98264.81;7374723;19;20062;-73
2023/05/14 03:22:03;;;;;;;;;;;;;;;10.42;90.05;98259.66;7375855;19;19919;-73
2023/05/14 03:24:30;;;;;;;;;;;;;;;10.47;90.21;98260.03;7373046;19;19931;-73
2023/05/14 03:26:57;;;;;;;;;;;;;;;10.45;89.84;98259.38;7370146;19;19923;-73
2023/05/14 03:29:23;;;;;;;;;;;;;;;10.40;89.74;98253.75;7371713;19;19926;-73
2023/05/14 03:31:50;;;;;;;;;;;;;;;10.45;90.13;98248.81;7371239;19;19912;-73
2023/05/14 03:34:17;;;;;;;;;;;;;;;10.40;89.93;98250.25;7355673;19;19926;-73
2023/05/14 03:36:44;;;;;;;;;;;;;;;10.38;90.00;98250.41;7369090;19;19926;-73
2023/05/14 03:39:14;;;;;;;;;;;;;;;10.35;89.67;98253.38;7369985;19;19940;-73
2023/05/14 03:41:40;;;;;;;;;;;;;;;10.52;90.35;98256.91;7377502;19;19922;-73
2023/05/14 03:44:07;;;;;;;;;;;;;;;10.51;89.68;98256.09;7370967;19;19949;-73
2023/05/14 03:46:34;;;;;;;;;;;;;;;10.58;89.60;98263.38;7363316;19;19942;-73
2023/05/14 03:49:01;;;;;;;;;;;;;;;10.57;89.14;98251.97;7371380;19;19923;-73
2023/05/14 03:51:28;;;;;;;;;;;;;;;10.46;89.11;98247.81;7372203;19;19918;-73
2023/05/14 03:53:56;;;;;;;;;;;;;;;10.41;89.41;98247.44;7370895;19;20265;-73
2023/05/14 03:56:23;;;;;;;;;;;;;;;10.39;89.97;98253.88;7366626;19;19927;-73
2023/05/14 03:58:51;;;;;;;;;;;;;;;10.35;89.84;98248.09;7370357;19;19927;-73
2023/05/14 04:01:18;;;;;;;;;;;;;;;10.31;89.76;98252.84;7369718;19;19947;-73
2023/05/14 04:03:45;;;;;;;;;;;;;;;10.25;89.89;98247.34;7370715;19;19944;-73
2023/05/14 04:06:12;;;;;;;;;;;;;;;10.38;89.68;98249.59;7364751;19;19923;-73
2023/05/14 04:08:38;;;;;;;;;;;;;;;10.41;89.60;98242.16;7370373;19;19957;-73
2023/05/14 04:11:05;;;;;;;;;;;;;;;10.52;89.80;98244.50;7369435;19;19919;-73
2023/05/14 04:13:32;;;;;;;;;;;;;;;10.52;89.38;98241.06;7372405;19;20316;-73
2023/05/14 04:15:59;;;;;;;;;;;;;;;10.50;89.45;98241.19;7370774;19;19951;-73
2023/05/14 04:18:25;;;;;;;;;;;;;;;10.52;89.04;98238.41;7367080;19;20011;-73
2023/05/14 04:20:53;;;;;;;;;;;;;;;10.45;88.93;98248.81;7368500;19;20348;-73
2023/05/14 04:23:20;;;;;;;;;;;;;;;10.36;88.96;98246.25;7370462;19;20005;-73
2023/05/14 04:25:46;;;;;;;;;;;;;;;10.39;88.67;98240.66;7378149;19;19952;-73
2023/05/14 04:28:13;;;;;;;;;;;;;;;10.31;88.79;98239.63;7378003;19;20347;-73
2023/05/14 04:30:40;;;;;;;;;;;;;;;10.43;88.97;98244.66;7379837;19;19982;-73
2023/05/14 04:33:07;;;;;;;;;;;;;;;10.26;89.23;98246.34;7378753;19;20380;-73
2023/05/14 04:35:34;;;;;;;;;;;;;;;10.31;89.45;98241.44;7376099;19;19919;-73
2023/05/14 04:38:00;;;;;;;;;;;;;;;10.37;89.58;98248.72;7373936;19;19922;-73
2023/05/14 04:40:27;;;;;;;;;;;;;;;10.50;89.29;98251.78;7371660;19;19957;-73
2023/05/14 04:42:54;;;;;;;;;;;;;;;10.54;89.14;98252.31;7377195;19;20405;-73
2023/05/14 04:45:20;;;;;;;;;;;;;;;10.44;89.66;98241.84;7374699;19;19923;-73
2023/05/14 04:47:47;;;;;;;;;;;;;;;10.54;89.71;98237.25;7376913;19;19923;-73
2023/05/14 04:50:14;;;;;;;;;;;;;;;10.55;88.94;98243.38;7373433;19;19942;-73
2023/05/14 04:52:40;;;;;;;;;;;;;;;10.39;89.26;98232.72;7379211;19;19927;-73
2023/05/14 04:55:07;;;;;;;;;;;;;;;10.45;89.59;98237.38;7367756;19;19947;-73
2023/05/14 04:57:34;;;;;;;;;;;;;;;10.53;89.61;98240.91;7369137;19;20636;-73
2023/05/14 05:00:01;;;;;;;;;;;;;;;10.44;89.73;98241.84;7368099;19;19943;-73
2023/05/14 05:02:27;;;;;;;;;;;;;;;10.62;89.53;98243.59;7374963;19;19951;-73
2023/05/14 05:04:54;;;;;;;;;;;;;;;10.60;89.64;98248.19;7370310;19;19922;-73
2023/05/14 05:07:21;;;;;;;;;;;;;;;10.58;89.65;98247.50;7373160;19;19923;-73
2023/05/14 05:09:48;;;;;;;;;;;;;;;10.36;90.32;98249.72;7374448;19;20381;-73
2023/05/14 05:12:14;;;;;;;;;;;;;;;10.25;90.83;98248.16;7374297;19;19915;-73
2023/05/14 05:14:41;;;;;;;;;;;;;;;10.35;90.35;98247.22;7373629;19;19982;-73
2023/05/14 05:17:07;;;;;;;;;;;;;;;10.55;90.33;98248.66;7374104;19;19940;-73
2023/05/14 05:19:34;;;;;;;;;;;;;;;10.39;89.94;98241.47;7376157;19;19923;-73
2023/05/14 05:22:09;;;;;;;;;;;;;;;10.61;89.45;98250.69;7374750;19;19931;-73
2023/05/14 05:24:35;;;;;;;;;;;;;;;10.75;89.57;98241.31;7376367;19;19950;-72
2023/05/14 05:27:02;;;;;;;;;;;;;;;10.80;89.03;98248.78;7372145;19;19919;-73
2023/05/14 05:29:29;;;;;;;;;;;;;;;10.84;88.96;98245.63;7374373;19;19919;-73
2023/05/14 05:31:56;;;;;;;;;;;;;;;10.69;88.79;98236.63;7376841;19;19921;-73
2023/05/14 05:34:22;;;;;;;;;;;;;;;10.66;89.43;98236.97;7375948;19;20329;-73
2023/05/14 05:36:49;;;;;;;;;;;;;;;10.71;89.04;98240.78;7373010;19;19929;-73
2023/05/14 05:39:16;;;;;;;;;;;;;;;10.80;89.14;98240.84;7372176;19;20349;-73
2023/05/14 05:41:43;;;;;;;;;;;;;;;10.97;89.17;98242.53;7375222;19;19938;-73
2023/05/14 05:44:09;;;;;;;;;;;;;;;10.93;88.70;98246.50;7373381;19;19918;-73
2023/05/14 05:46:36;;;;;;;;;;;;;;;10.90;88.88;98241.50;7370153;19;20365;-73
2023/05/14 05:49:03;;;;;;;;;;;;;;;10.95;88.45;98240.06;7373715;19;22062;-73
2023/05/14 05:51:30;;;;;;;;;;;;;;;11.02;88.84;98239.41;7372177;19;19915;-73
2023/05/14 05:53:56;;;;;;;;;;;;;;;10.99;87.77;98241.38;7373203;19;19919;-73
2023/05/14 05:56:23;;;;;;;;;;;;;;;11.13;87.65;98241.75;7367707;19;20378;-73
2023/05/14 05:58:50;;;;;;;;;;;;;;;10.96;87.89;98241.72;7376916;19;19944;-73
2023/05/14 06:01:16;;;;;;;;;;;;;;;10.99;87.62;98240.56;7366205;19;19919;-72
2023/05/14 06:03:43;;;;;;;;;;;;;;;11.13;87.71;98247.03;7372323;19;19919;-73
2023/05/14 06:06:14;;;;;;;;;;;;;;;11.13;87.25;98245.22;7361603;19;19950;-73
2023/05/14 06:08:41;;;;;;;;;;;;;;;11.06;87.40;98249.53;7374016;19;19978;-73
2023/05/14 06:11:07;;;;;;;;;;;;;;;11.06;87.90;98251.31;7372758;19;19926;-72
2023/05/14 06:13:34;;;;;;;;;;;;;;;11.15;87.64;98256.47;7372961;19;21144;-73
2023/05/14 06:16:01;;;;;;;;;;;;;;;11.33;87.88;98251.06;7371771;19;20308;-73
2023/05/14 06:18:27;;;;;;;;;;;;;;;11.47;87.38;98246.09;7369706;19;20344;-73
2023/05/14 06:20:55;;;;;;;;;;;;;;;11.43;86.55;98245.59;7373286;19;19926;-73
2023/05/14 06:23:22;;;;;;;;;;;;;;;11.34;86.63;98252.69;7370637;19;20618;-73
2023/05/14 06:25:49;;;;;;;;;;;;;;;11.61;86.71;98251.56;7375397;19;19949;-73
2023/05/14 06:28:16;;;;;;;;;;;;;;;11.20;86.14;98243.56;7371392;19;19939;-72
2023/05/14 06:30:42;;;;;;;;;;;;;;;11.38;86.48;98256.69;7377591;19;19926;-73
2023/05/14 06:33:11;;;;;;;;;;;;;;;11.50;86.13;98248.41;7373209;19;19919;-73
2023/05/14 06:35:38;;;;;;;;;;;;;;;11.28;86.02;98250.72;7372715;19;19918;-73
2023/05/14 06:38:05;;;;;;;;;;;;;;;11.13;86.04;98247.03;7368081;19;19914;-73
2023/05/14 06:40:32;;;;;;;;;;;;;;;11.50;86.22;98246.59;7371906;19;20285;-73
2023/05/14 06:42:58;;;;;;;;;;;;;;;11.60;85.37;98233.19;7374077;19;20404;-73
2023/05/14 06:45:25;;;;;;;;;;;;;;;11.76;84.78;98238.47;7368776;19;19919;-73
2023/05/14 06:47:52;;;;;;;;;;;;;;;11.78;84.25;98238.31;7374541;19;19919;-72
2023/05/14 06:50:19;;;;;;;;;;;;;;;11.93;83.85;98239.34;7369979;19;19944;-73
2023/05/14 06:52:45;;;;;;;;;;;;;;;11.95;83.13;98244.47;7371673;19;19978;-72
2023/05/14 06:55:12;;;;;;;;;;;;;;;11.94;83.44;98240.97;7370438;19;19922;-73
2023/05/14 06:57:39;;;;;;;;;;;;;;;11.86;84.27;98241.81;7371646;19;19914;-72
2023/05/14 07:00:07;;;;;;;;;;;;;;;12.04;83.54;98235.50;7374101;19;19930;-73
2023/05/14 07:02:34;;;;;;;;;;;;;;;12.30;83.54;98241.41;7370039;19;20102;-73
2023/05/14 07:05:01;;;;;;;;;;;;;;;12.21;82.32;98238.94;7373703;19;19925;-73
2023/05/14 07:07:27;;;;;;;;;;;;;;;12.46;82.58;98245.84;7365947;19;19952;-73
2023/05/14 07:09:54;;;;;;;;;;;;;;;12.55;82.76;98243.16;7368076;19;19918;-73
2023/05/14 07:12:21;;;;;;;;;;;;;;;12.57;81.27;98241.16;7366586;19;20265;-73
2023/05/14 07:14:47;;;;;;;;;;;;;;;12.71;81.96;98245.75;7374308;19;19915;-72
2023/05/14 07:17:14;;;;;;;;;;;;;;;12.23;82.49;98243.09;7366438;19;19948;-73
2023/05/14 07:19:41;;;;;;;;;;;;;;;12.52;81.85;98250.47;7373800;19;19915;-73
2023/05/14 07:22:07;;;;;;;;;;;;;;;12.01;82.24;98243.81;7372059;19;19934;-72
2023/05/14 07:24:34;;;;;;;;;;;;;;;12.09;83.85;98235.84;7365284;19;19926;-73
2023/05/14 07:27:01;;;;;;;;;;;;;;;12.47;81.77;98234.22;7369411;19;20576;-73
2023/05/14 07:29:29;;;;;;;;;;;;;;;12.87;81.89;98228.91;7360905;19;20504;-73
2023/05/14 07:31:55;;;;;;;;;;;;;;;13.08;80.35;98226.47;7376410;19;19961;-73
2023/05/14 07:34:22;;;;;;;;;;;;;;;13.37;79.04;98227.66;7368167;19;19953;-73
2023/05/14 07:36:48;;;;;;;;;;;;;;;13.78;78.78;98224.69;7373706;19;19973;-73
2023/05/14 07:39:15;;;;;;;;;;;;;;;13.84;76.59;98221.28;7367255;19;19923;-73
2023/05/14 07:41:42;;;;;;;;;;;;;;;13.99;75.38;98224.81;7375636;19;19934;-73
2023/05/14 07:44:09;;;;;;;;;;;;;;;14.07;75.73;98221.25;7370978;19;19918;-73
2023/05/14 07:46:35;;;;;;;;;;;;;;;13.94;75.25;98219.19;7367867;19;19923;-73
2023/05/14 07:49:02;;;;;;;;;;;;;;;13.88;75.73;98217.28;7371077;19;19922;-73
2023/05/14 07:51:29;;;;;;;;;;;;;;;14.22;75.38;98218.59;7372038;19;20374;-73
2023/05/14 07:53:55;;;;;;;;;;;;;;;14.30;75.46;98221.16;7373682;19;19922;-73
2023/05/14 07:56:22;;;;;;;;;;;;;;;14.19;74.93;98213.63;7369888;19;19999;-73
2023/05/14 07:58:49;;;;;;;;;;;;;;;14.35;74.60;98221.44;7378718;19;19926;-72
2023/05/14 08:01:16;;;;;;;;;;;;;;;14.06;74.07;98214.28;7372703;19;19927;-72
2023/05/14 08:03:42;;;;;;;;;;;;;;;14.28;74.69;98221.34;7373601;19;19978;-73
2023/05/14 08:06:09;;;;;;;;;;;;;;;13.87;75.34;98210.28;7376931;19;19982;-72
2023/05/14 08:08:36;;;;;;;;;;;;;;;13.43;76.17;98213.66;7375764;19;20286;-72
2023/05/14 08:11:02;;;;;;;;;;;;;;;13.81;76.41;98219.00;7381650;19;19954;-73
2023/05/14 08:13:29;;;;;;;;;;;;;;;13.33;76.45;98219.22;7377115;19;19923;-72
2023/05/14 08:15:56;;;;;;;;;;;;;;;13.45;77.28;98208.97;7380280;19;19923;-72
2023/05/14 08:18:22;;;;;;;;;;;;;;;13.81;77.27;98211.00;7371900;19;19975;-72
2023/05/14 08:20:49;;;;;;;;;;;;;;;14.06;76.52;98208.97;7376917;19;20435;-72
2023/05/14 08:23:16;;;;;;;;;;;;;;;13.73;74.86;98203.94;7374884;19;20342;-72
2023/05/14 08:25:42;;;;;;;;;;;;;;;13.94;75.47;98205.09;7378122;19;19927;-71
2023/05/14 08:28:09;;;;;;;;;;;;;;;14.32;74.68;98207.66;7377192;19;20300;-72
2023/05/14 08:30:35;;;;;;;;;;;;;;;14.38;75.06;98202.44;7377570;19;19935;-71
2023/05/14 08:33:02;;;;;;;;;;;;;;;14.15;73.44;98201.72;7380270;19;19919;-72
2023/05/14 08:35:29;;;;;;;;;;;;;;;14.56;73.05;98198.59;7373158;19;19923;-71
2023/05/14 08:37:56;;;;;;;;;;;;;;;14.50;71.96;98198.28;7374818;19;19911;-71
2023/05/14 08:40:22;;;;;;;;;;;;;;;14.57;71.32;98197.59;7373174;19;20245;-71
2023/05/14 08:42:50;;;;;;;;;;;;;;;14.44;70.71;98200.88;7379978;19;19926;-72
2023/05/14 08:45:18;;;;;;;;;;;;;;;14.45;70.17;98202.53;7377916;19;20274;-71
2023/05/14 08:47:51;;;;;;;;;;;;;;;14.72;72.67;98203.75;7375661;19;20276;-71
2023/05/14 08:50:18;;;;;;;;;;;;;;;14.74;72.23;98203.53;7375715;19;19914;-71
2023/05/14 08:52:48;;;;;;;;;;;;;;;14.56;73.27;98202.09;7378507;19;20281;-71
2023/05/14 08:55:15;;;;;;;;;;;;;;;14.94;75.04;98193.94;7371567;19;19953;-71
2023/05/14 08:57:41;;;;;;;;;;;;;;;14.86;72.75;98189.56;7375942;19;20332;-72
2023/05/14 09:00:11;;;;;;;;;;;;;;;14.83;73.01;98191.78;7378913;19;19918;-71
2023/05/14 09:02:38;;;;;;;;;;;;;;;14.99;72.67;98198.72;7378958;19;20439;-72
2023/05/14 09:05:06;;;;;;;;;;;;;;;14.75;73.68;98190.03;7367300;19;19915;-71
2023/05/14 09:07:32;;;;;;;;;;;;;;;15.02;72.81;98187.69;7370010;19;19954;-71
2023/05/14 09:10:00;;;;;;;;;;;;;;;15.08;73.35;98197.56;7371420;19;19919;-71
2023/05/14 09:12:26;;;;;;;;;;;;;;;14.98;70.30;98191.72;7374515;19;20371;-71
2023/05/14 09:14:53;;;;;;;;;;;;;;;15.07;71.83;98193.28;7376578;19;19935;-72
2023/05/14 09:17:19;;;;;;;;;;;;;;;15.16;71.40;98192.13;7371361;19;19915;-71
2023/05/14 09:19:47;;;;;;;;;;;;;;;15.32;72.51;98180.38;7377803;19;19925;-71
2023/05/14 09:22:15;;;;;;;;;;;;;;;15.63;73.26;98174.72;7380269;19;19922;-71
2023/05/14 09:24:42;;;;;;;;;;;;;;;15.95;73.04;98170.66;7373546;19;20606;-71
2023/05/14 09:27:09;;;;;;;;;;;;;;;15.75;67.13;98172.38;7374240;19;20328;-71
2023/05/14 09:29:36;;;;;;;;;;;;;;;15.57;65.28;98175.50;7374242;19;19918;-71
2023/05/14 09:32:04;;;;;;;;;;;;;;;16.05;68.76;98170.34;7380247;19;19922;-71
2023/05/14 09:34:32;;;;;;;;;;;;;;;16.11;67.84;98174.88;7376965;19;19967;-72
2023/05/14 09:37:03;;;;;;;;;;;;;;;16.19;66.49;98168.56;7375334;19;19929;-72
2023/05/14 09:39:31;;;;;;;;;;;;;;;15.70;67.59;98156.97;7377394;19;19925;-71
2023/05/14 09:41:57;;;;;;;;;;;;;;;15.83;70.74;98161.56;7370541;19;19919;-71
2023/05/14 09:44:24;;;;;;;;;;;;;;;15.63;70.36;98166.72;7375078;19;20377;-72
2023/05/14 09:46:51;;;;;;;;;;;;;;;15.88;70.98;98163.66;7376458;19;19930;-72
2023/05/14 09:49:18;;;;;;;;;;;;;;;16.06;71.06;98165.81;7374718;19;19948;-71
2023/05/14 09:51:45;;;;;;;;;;;;;;;15.92;69.10;98164.91;7378350;19;19925;-72
2023/05/14 09:54:11;;;;;;;;;;;;;;;15.37;69.17;98154.81;7367827;19;19919;-72
2023/05/14 09:56:38;;;;;;;;;;;;;;;15.98;70.55;98156.97;7365912;19;19923;-72
2023/05/14 09:59:05;;;;;;;;;;;;;;;16.05;69.86;98154.31;7374332;19;19944;-72
2023/05/14 10:01:31;;;;;;;;;;;;;;;16.55;71.01;98154.16;7358858;19;19918;-72
2023/05/14 10:03:59;;;;;;;;;;;;;;;16.82;70.77;98147.91;7378900;19;19919;-72
2023/05/14 10:06:27;;;;;;;;;;;;;;;17.05;68.08;98139.53;7364616;19;20495;-71
2023/05/14 10:08:55;;;;;;;;;;;;;;;17.38;68.30;98148.63;7374454;19;19943;-71
2023/05/14 10:11:26;;;;;;;;;;;;;;;16.71;63.54;98153.81;7372355;19;20293;-71
2023/05/14 10:13:55;;;;;;;;;;;;;;;17.20;64.25;98138.56;7377126;19;19930;-72
2023/05/14 10:16:25;;;;;;;;;;;;;;;16.66;63.11;98149.06;7367772;19;20239;-72
2023/05/14 10:18:53;;;;;;;;;;;;;;;16.91;63.55;98140.56;7377465;19;19937;-71
2023/05/14 10:21:22;;;;;;;;;;;;;;;16.92;63.94;98152.06;7361726;19;19923;-72
2023/05/14 10:23:49;;;;;;;;;;;;;;;16.86;68.49;98151.84;7371393;19;19947;-71
2023/05/14 10:26:16;;;;;;;;;;;;;;;17.54;66.71;98143.72;7366445;19;19914;-72
2023/05/14 10:28:42;;;;;;;;;;;;;;;17.05;63.91;98149.41;7363544;19;20363;-73
2023/05/14 10:31:09;;;;;;;;;;;;;;;17.05;66.31;98150.22;7364235;19;20561;-72
2023/05/14 10:33:49;;;;;;;;;;;;;;;16.85;66.19;98142.19;7368600;19;20419;-72
2023/05/14 10:36:17;;;;;;;;;;;;;;;17.06;62.75;98141.22;7365062;19;19919;-71
2023/05/14 10:38:43;;;;;;;;;;;;;;;17.60;63.32;98127.88;7371103;19;19961;-71
2023/05/14 10:41:16;;;;;;;;;;;;;;;18.17;61.88;98134.41;7374356;19;20400;-72
2023/05/14 10:43:43;;;;;;;;;;;;;;;18.26;61.72;98125.09;7376095;19;19911;-71
2023/05/14 10:46:11;;;;;;;;;;;;;;;17.90;61.94;98131.75;7373526;19;20376;-71
2023/05/14 10:48:38;;;;;;;;;;;;;;;17.68;61.44;98124.97;7370623;19;19918;-71
2023/05/14 10:51:05;;;;;;;;;;;;;;;18.28;61.52;98125.69;7378299;19;19919;-71
2023/05/14 10:53:34;;;;;;;;;;;;;;;18.05;60.42;98122.69;7362821;19;19940;-71
2023/05/14 10:56:07;;;;;;;;;;;;;;;17.44;61.45;98121.91;7369035;19;19922;-70
2023/05/14 10:58:38;;;;;;;;;;;;;;;17.14;63.82;98121.47;7368441;19;19955;-71
2023/05/14 11:01:08;;;;;;;;;;;;;;;17.82;62.23;98118.59;7371988;19;19923;-71
2023/05/14 11:03:39;;;;;;;;;;;;;;;17.96;64.77;98116.75;7369328;19;19922;-71
2023/05/14 11:06:06;;;;;;;;;;;;;;;17.62;63.83;98109.75;7371021;19;19954;-71
2023/05/14 11:08:33;;;;;;;;;;;;;;;17.78;66.25;98117.34;7366561;19;19923;-72
2023/05/14 11:10:59;;;;;;;;;;;;;;;17.60;62.37;98115.31;7377306;19;19940;-72
2023/05/14 11:13:26;;;;;;;;;;;;;;;17.61;66.14;98111.59;7372155;19;19923;-72
2023/05/14 11:15:53;;;;;;;;;;;;;;;17.83;65.65;98114.91;7370895;19;20561;-73
2023/05/14 11:18:29;;;;;;;;;;;;;;;17.96;65.14;98114.88;7373680;19;19914;-71
2023/05/14 11:20:59;;;;;;;;;;;;;;;18.20;62.81;98109.88;7375074;19;19953;-72
2023/05/14 11:23:26;;;;;;;;;;;;;;;18.32;63.72;98102.00;7372259;19;19921;-72
2023/05/14 11:25:53;;;;;;;;;;;;;;;18.31;60.80;98095.81;7374129;19;19936;-71
2023/05/14 11:28:20;;;;;;;;;;;;;;;18.41;59.14;98093.50;7373331;19;20283;-73
2023/05/14 11:30:50;;;;;;;;;;;;;;;18.54;60.88;98087.28;7374645;19;19984;-72
2023/05/14 11:33:18;;;;;;;;;;;;;;;20.24;59.79;98086.31;7381236;19;21858;-72
2023/05/14 11:35:45;;;;;;;;;;;;;;;20.61;56.67;98084.41;7378050;19;19929;-72
2023/05/14 11:38:15;;;;;;;;;;;;;;;20.04;53.99;98083.06;7381050;19;19947;-71
2023/05/14 11:40:51;;;;;;;;;;;;;;;18.91;62.85;98089.38;7380934;19;19926;-72
2023/05/14 11:43:17;;;;;;;;;;;;;;;17.60;64.11;98088.56;7385583;19;20276;-71
2023/05/14 11:45:48;;;;;;;;;;;;;;;17.60;68.15;98083.22;7380375;19;19952;-73
2023/05/14 11:48:15;;;;;;;;;;;;;;;17.26;70.57;98082.41;7380930;19;20351;-74
2023/05/14 11:50:43;;;;;;;;;;;;;;;17.15;72.17;98082.19;7380965;19;20408;-73
2023/05/14 11:53:10;;;;;;;;;;;;;;;17.10;71.30;98075.59;7380736;19;19922;-72
2023/05/14 11:55:37;;;;;;;;;;;;;;;17.16;67.40;98079.31;7377897;19;20419;-72
2023/05/14 11:58:03;;;;;;;;;;;;;;;17.14;65.83;98081.38;7384470;19;19952;-72
2023/05/14 12:00:32;;;;;;;;;;;;;;;17.21;64.36;98073.34;7378445;19;19947;-72
2023/05/14 12:02:59;;;;;;;;;;;;;;;17.57;67.05;98072.13;7373465;19;20382;-72
2023/05/14 12:05:26;;;;;;;;;;;;;;;17.73;63.53;98072.47;7379681;19;19918;-72
2023/05/14 12:07:53;;;;;;;;;;;;;;;17.76;61.49;98068.56;7384460;19;19927;-72
2023/05/14 12:10:19;;;;;;;;;;;;;;;17.81;64.88;98067.97;7383867;19;20632;-72
2023/05/14 12:12:46;;;;;;;;;;;;;;;18.65;61.65;98064.34;7382950;19;19929;-72
2023/05/14 12:15:13;;;;;;;;;;;;;;;20.77;58.68;98064.16;7383543;19;20278;-72
2023/05/14 12:17:40;;;;;;;;;;;;;;;21.02;51.26;98055.91;7376847;19;19948;-73
2023/05/14 12:20:09;;;;;;;;;;;;;;;20.82;51.38;98058.91;7382553;19;19921;-72
2023/05/14 12:22:36;;;;;;;;;;;;;;;19.52;52.48;98056.50;7377852;19;19915;-72
2023/05/14 12:25:02;;;;;;;;;;;;;;;18.88;53.63;98054.94;7380724;19;19966;-72
2023/05/14 12:27:29;;;;;;;;;;;;;;;18.88;55.63;98054.94;7377950;19;19919;-72
2023/05/14 12:29:59;;;;;;;;;;;;;;;17.99;56.67;98052.06;7383689;19;19918;-73
2023/05/14 12:32:45;;;;;;;;;;;;;;;17.65;61.47;98048.63;7379780;19;19934;-72
2023/05/14 12:35:12;;;;;;;;;;;;;;;17.52;63.33;98054.81;7381498;19;19919;-72
2023/05/14 12:37:38;;;;;;;;;;;;;;;17.21;62.54;98046.63;7374712;19;19960;-72
2023/05/14 12:40:08;;;;;;;;;;;;;;;17.25;60.91;98037.19;7379919;19;20459;-72
2023/05/14 12:42:35;;;;;;;;;;;;;;;17.51;62.33;98036.31;7377196;19;19948;-72
2023/05/14 12:45:04;;;;;;;;;;;;;;;17.96;63.24;98033.78;7381528;19;19929;-72
2023/05/14 12:47:31;;;;;;;;;;;;;;;18.84;62.49;98031.25;7377711;19;19919;-72